Time;durP1;ratioP1;P1;durP2;ratioP2;P2;SDS_P1;SDS_P2;PMS_P1;PMS_P2;Temp;Humidity;BMP_temperature;BMP_pressure;BME280_temperature;BME280_humidity;BME280_pressure;Samples;Min_cycle;Max_cycle;Signal;HPM_P1;HPM_P2
2021/05/12 00:02:14;;;;;;;3.67;1.58;;;20.80;58.00;;;;;;5056939;28;20052;-56
2021/05/12 00:04:39;;;;;;;2.80;1.70;;;20.90;58.00;;;;;;5057250;28;20058;-54
2021/05/12 00:07:05;;;;;;;1.90;1.77;;;20.90;58.00;;;;;;5057236;28;20033;-57
2021/05/12 00:09:30;;;;;;;2.65;1.60;;;20.80;57.90;;;;;;5057198;28;20037;-57
2021/05/12 00:11:56;;;;;;;2.50;1.67;;;20.80;57.80;;;;;;5056535;28;20021;-52
2021/05/12 00:14:22;;;;;;;3.03;1.70;;;20.80;57.80;;;;;;5057076;28;20444;-58
2021/05/12 00:16:48;;;;;;;2.50;1.60;;;20.80;57.80;;;;;;5057355;28;20448;-53
2021/05/12 00:19:13;;;;;;;1.98;1.75;;;20.80;57.80;;;;;;5056908;28;20083;-57
2021/05/12 00:24:05;;;;;;;2.17;1.67;;;20.80;57.70;;;;;;5056164;28;20035;-56
2021/05/12 00:26:39;;;;;;;2.08;1.60;;;20.80;57.70;;;;;;5056670;28;20025;-59
2021/05/12 00:29:06;;;;;;;2.40;1.67;;;20.80;57.70;;;;;;5056615;28;20056;-54
2021/05/12 00:31:32;;;;;;;1.80;1.63;;;20.80;57.60;;;;;;5056635;28;20024;-54
2021/05/12 00:33:58;;;;;;;2.83;1.67;;;20.80;57.60;;;;;;5056876;28;20135;-53
2021/05/12 00:36:24;;;;;;;1.85;1.73;;;20.80;57.60;;;;;;5056935;28;20075;-56
2021/05/12 00:38:49;;;;;;;1.90;1.77;;;20.80;57.50;;;;;;5056358;28;20033;-55
2021/05/12 00:41:15;;;;;;;1.80;1.70;;;20.70;57.50;;;;;;5056632;28;20079;-58
2021/05/12 00:43:40;;;;;;;4.25;2.05;;;20.80;57.50;;;;;;5056279;28;20046;-55
2021/05/12 00:46:06;;;;;;;2.63;2.08;;;20.80;57.50;;;;;;5056473;28;20086;-55
2021/05/12 00:48:31;;;;;;;1.75;1.60;;;20.70;57.40;;;;;;5056764;28;20451;-56
2021/05/12 00:50:57;;;;;;;2.30;1.88;;;20.70;57.40;;;;;;5055990;28;20371;-56
2021/05/12 00:53:23;;;;;;;2.38;2.10;;;20.70;57.30;;;;;;5056427;28;20021;-59
2021/05/12 00:55:48;;;;;;;2.38;1.92;;;20.70;57.30;;;;;;5056248;28;20055;-57
2021/05/12 00:58:14;;;;;;;2.85;2.22;;;20.70;57.30;;;;;;5038672;28;20098;-58
2021/05/12 01:00:41;;;;;;;2.22;2.03;;;20.70;57.30;;;;;;5056223;28;20104;-54
2021/05/12 01:03:07;;;;;;;2.30;2.10;;;20.70;57.30;;;;;;5056077;28;20355;-57
2021/05/12 01:05:35;;;;;;;2.35;2.05;;;20.70;57.30;;;;;;5056107;28;20024;-58
2021/05/12 01:08:03;;;;;;;2.10;1.90;;;20.70;57.20;;;;;;5056092;28;20036;-57
2021/05/12 01:10:28;;;;;;;2.45;2.00;;;20.70;57.90;;;;;;5055304;28;20110;-55
2021/05/12 01:12:54;;;;;;;1.70;1.60;;;20.70;57.20;;;;;;5056056;28;20052;-59
2021/05/12 01:15:20;;;;;;;2.08;1.98;;;20.70;57.10;;;;;;5055974;28;20090;-58
2021/05/12 01:17:45;;;;;;;3.78;2.00;;;20.70;57.10;;;;;;5038039;28;20107;-56
2021/05/12 01:20:12;;;;;;;4.28;2.58;;;20.70;57.10;;;;;;5056142;28;20033;-56
2021/05/12 01:22:39;;;;;;;2.42;2.20;;;20.60;57.00;;;;;;5056023;28;20071;-58
2021/05/12 01:25:06;;;;;;;2.50;2.30;;;20.60;57.00;;;;;;5056129;28;20029;-58
2021/05/12 01:27:32;;;;;;;2.95;1.95;;;20.70;57.00;;;;;;5038452;28;20055;-53
2021/05/12 01:29:58;;;;;;;3.45;2.17;;;20.60;56.90;;;;;;5056034;28;20467;-54
2021/05/12 01:32:29;;;;;;;3.25;2.33;;;20.60;56.80;;;;;;5055731;28;20400;-56
2021/05/12 01:35:10;;;;;;;3.15;2.00;;;20.60;56.80;;;;;;5055041;28;20096;-54
2021/05/12 01:37:36;;;;;;;2.25;2.05;;;20.60;56.80;;;;;;5055689;28;20035;-56
2021/05/12 01:40:06;;;;;;;2.10;1.85;;;20.60;56.80;;;;;;5055678;28;20024;-56
2021/05/12 01:42:31;;;;;;;2.25;1.90;;;20.60;56.80;;;;;;5055466;28;20052;-56
2021/05/12 01:45:07;;;;;;;2.85;2.17;;;20.60;56.80;;;;;;5037475;28;20055;-55
2021/05/12 01:47:33;;;;;;;3.35;1.90;;;20.60;56.80;;;;;;5055138;28;20013;-57
2021/05/12 01:50:02;;;;;;;2.00;1.83;;;20.60;56.80;;;;;;5055258;28;20442;-56
2021/05/12 01:52:28;;;;;;;2.10;1.90;;;20.60;56.70;;;;;;5055245;28;20125;-56
2021/05/12 01:54:53;;;;;;;2.55;2.28;;;20.60;56.70;;;;;;5055307;28;20064;-57
2021/05/12 01:57:19;;;;;;;3.83;2.20;;;20.60;56.90;;;;;;5054891;28;20509;-52
2021/05/12 01:59:44;;;;;;;2.42;2.03;;;20.60;56.60;;;;;;5054988;28;20359;-54
2021/05/12 02:02:10;;;;;;;2.17;1.70;;;20.60;56.60;;;;;;5055081;28;20091;-54
2021/05/12 02:04:57;;;;;;;2.03;1.70;;;20.60;56.60;;;;;;5054885;28;20056;-55
2021/05/12 02:07:22;;;;;;;2.03;1.70;;;20.60;56.60;;;;;;5055130;28;20029;-55
2021/05/12 02:09:52;;;;;;;2.63;1.63;;;20.60;56.50;;;;;;5037347;28;20087;-55
2021/05/12 02:12:18;;;;;;;3.45;1.83;;;20.60;56.50;;;;;;5055279;28;20036;-56
2021/05/12 02:14:43;;;;;;;2.03;1.92;;;20.50;56.40;;;;;;5055030;28;20021;-56
2021/05/12 02:17:09;;;;;;;2.10;1.77;;;20.60;56.40;;;;;;5054922;28;20031;-55
2021/05/12 02:19:34;;;;;;;3.33;1.65;;;20.50;56.30;;;;;;5054498;28;20053;-55
2021/05/12 02:22:00;;;;;;;1.98;1.67;;;20.50;56.30;;;;;;5054757;28;20132;-53
2021/05/12 02:24:25;;;;;;;2.00;1.80;;;20.50;56.90;;;;;;5054710;28;20036;-55
2021/05/12 02:26:51;;;;;;;1.98;1.80;;;20.50;56.30;;;;;;5054831;28;20044;-56
2021/05/12 02:29:16;;;;;;;2.22;1.70;;;20.50;56.30;;;;;;5054902;28;20029;-53
2021/05/12 02:31:42;;;;;;;2.60;1.50;;;20.50;56.90;;;;;;5054240;28;20033;-59
2021/05/12 02:34:07;;;;;;;1.60;1.50;;;20.50;56.20;;;;;;5054702;28;20025;-56
2021/05/12 02:36:33;;;;;;;1.50;1.40;;;20.50;56.80;;;;;;5054877;28;20028;-57
2021/05/12 02:38:58;;;;;;;2.67;1.88;;;20.50;56.10;;;;;;5054856;28;20025;-54
2021/05/12 02:41:24;;;;;;;2.10;1.70;;;20.50;56.10;;;;;;5054545;28;20053;-56
2021/05/12 02:43:49;;;;;;;1.73;1.60;;;20.50;56.10;;;;;;5054590;28;20057;-54
2021/05/12 02:46:15;;;;;;;2.13;1.73;;;20.50;56.10;;;;;;5055634;28;20021;-58
2021/05/12 02:48:40;;;;;;;1.35;1.25;;;20.50;56.00;;;;;;5058712;28;20025;-54
2021/05/12 02:51:06;;;;;;;3.05;1.73;;;20.50;56.00;;;;;;5059042;28;20099;-57
2021/05/12 02:53:32;;;;;;;3.95;1.70;;;20.50;56.00;;;;;;5059125;28;20087;-57
2021/05/12 02:55:57;;;;;;;3.20;1.65;;;20.50;56.00;;;;;;5058670;28;20025;-55
2021/05/12 02:58:23;;;;;;;1.67;1.58;;;20.40;55.90;;;;;;5058637;28;20025;-57
2021/05/12 03:00:48;;;;;;;1.50;1.40;;;20.50;56.00;;;;;;5058839;28;20029;-52
2021/05/12 03:03:14;;;;;;;3.42;1.75;;;20.40;55.80;;;;;;5058316;28;20086;-52
2021/05/12 03:05:40;;;;;;;2.50;1.75;;;20.50;55.90;;;;;;5059091;28;20487;-52
2021/05/12 03:08:06;;;;;;;2.90;1.45;;;20.40;55.80;;;;;;5058271;28;20067;-55
2021/05/12 03:10:33;;;;;;;2.22;1.70;;;20.40;55.80;;;;;;5058104;28;20066;-56
2021/05/12 03:13:00;;;;;;;2.00;1.80;;;20.50;55.90;;;;;;5057948;28;20028;-58
2021/05/12 03:15:27;;;;;;;1.88;1.45;;;20.40;55.80;;;;;;5057999;28;20021;-55
2021/05/12 03:17:55;;;;;;;1.65;1.55;;;20.40;55.80;;;;;;5058107;28;20033;-56
2021/05/12 03:20:22;;;;;;;3.28;1.85;;;20.40;55.70;;;;;;5057783;28;20071;-58
2021/05/12 03:22:48;;;;;;;2.00;1.80;;;20.40;55.70;;;;;;5057614;28;20375;-56
2021/05/12 03:25:15;;;;;;;1.85;1.73;;;20.40;55.70;;;;;;5057693;28;20029;-55
2021/05/12 03:27:41;;;;;;;1.55;1.45;;;20.40;55.70;;;;;;5058116;28;20594;-55
2021/05/12 03:30:10;;;;;;;3.75;1.90;;;20.40;55.60;;;;;;5057475;28;20112;-59
2021/05/12 03:32:35;;;;;;;1.92;1.70;;;20.40;55.60;;;;;;5057761;28;20036;-58
2021/05/12 03:35:01;;;;;;;2.70;1.92;;;20.40;55.60;;;;;;5057980;28;20368;-57
2021/05/12 03:37:26;;;;;;;3.17;1.77;;;20.40;55.60;;;;;;5058125;28;20025;-55
2021/05/12 03:39:52;;;;;;;1.70;1.60;;;20.40;55.50;;;;;;5057710;28;20044;-56
2021/05/12 03:42:18;;;;;;;2.15;1.95;;;20.40;55.50;;;;;;5057956;28;20055;-52
2021/05/12 03:44:43;;;;;;;3.03;2.15;;;20.40;55.50;;;;;;5057723;28;20356;-57
2021/05/12 03:47:09;;;;;;;3.80;1.90;;;20.40;55.50;;;;;;5057678;28;20060;-56
2021/05/12 03:49:34;;;;;;;2.22;1.95;;;20.40;55.50;;;;;;5057268;28;20033;-55
2021/05/12 03:52:00;;;;;;;2.28;1.55;;;20.40;55.40;;;;;;5057569;28;20029;-54
2021/05/12 03:54:26;;;;;;;2.75;2.13;;;20.40;55.40;;;;;;5040282;28;20029;-52
2021/05/12 03:56:53;;;;;;;2.78;2.03;;;20.40;55.40;;;;;;5057214;28;20047;-57
2021/05/12 03:59:18;;;;;;;2.90;1.88;;;20.40;55.40;;;;;;5055969;28;20048;-57
2021/05/12 04:01:44;;;;;;;2.10;1.92;;;20.40;55.40;;;;;;5057443;28;20028;-55
2021/05/12 04:04:11;;;;;;;2.05;1.88;;;20.30;55.30;;;;;;5057668;28;20029;-55
2021/05/12 04:06:38;;;;;;;2.65;1.98;;;20.40;55.30;;;;;;5057225;28;20017;-56
2021/05/12 04:09:05;;;;;;;2.97;1.85;;;20.40;55.30;;;;;;5056890;28;20021;-56
2021/05/12 04:11:30;;;;;;;4.45;2.10;;;20.30;55.20;;;;;;5057114;28;20439;-57
2021/05/12 04:13:56;;;;;;;2.40;1.88;;;20.30;55.20;;;;;;5057375;28;20117;-52
2021/05/12 04:16:21;;;;;;;3.92;2.03;;;20.30;55.20;;;;;;5056972;28;20100;-55
2021/05/12 04:18:47;;;;;;;4.82;2.47;;;20.30;55.20;;;;;;5039407;28;20033;-56
2021/05/12 04:21:12;;;;;;;2.50;1.98;;;20.30;55.20;;;;;;5056549;28;20017;-56
2021/05/12 04:23:38;;;;;;;3.03;2.10;;;20.30;55.10;;;;;;5056714;28;20112;-54
2021/05/12 04:26:03;;;;;;;2.30;2.10;;;20.30;55.10;;;;;;5057056;28;20059;-55
2021/05/12 04:28:29;;;;;;;3.05;2.28;;;20.30;55.10;;;;;;5057027;28;20025;-58
2021/05/12 04:30:54;;;;;;;3.08;2.20;;;20.30;55.10;;;;;;5056360;28;20095;-57
2021/05/12 04:33:20;;;;;;;2.35;2.15;;;20.30;55.00;;;;;;5056411;28;20021;-55
2021/05/12 04:35:45;;;;;;;3.03;2.25;;;20.30;55.00;;;;;;5057119;28;20017;-58
2021/05/12 04:38:12;;;;;;;2.50;2.28;;;20.30;55.00;;;;;;5056668;28;20036;-57
2021/05/12 04:40:37;;;;;;;2.95;2.15;;;20.30;55.00;;;;;;5056795;28;20523;-57
2021/05/12 04:43:03;;;;;;;2.55;2.33;;;20.30;55.00;;;;;;5056641;28;20071;-59
2021/05/12 04:45:28;;;;;;;3.05;2.33;;;20.30;55.00;;;;;;5038353;28;20375;-55
2021/05/12 04:47:57;;;;;;;2.88;2.10;;;20.30;55.00;;;;;;5056859;28;20032;-54
2021/05/12 04:50:28;;;;;;;2.40;2.20;;;20.30;55.00;;;;;;5056356;28;20090;-56
2021/05/12 04:52:54;;;;;;;3.63;2.35;;;20.30;55.00;;;;;;5056760;28;20017;-60
2021/05/12 04:55:20;;;;;;;2.30;2.03;;;20.20;54.80;;;;;;5056449;28;20025;-55
2021/05/12 04:57:46;;;;;;;3.10;2.65;;;20.20;54.80;;;;;;5056373;28;20029;-56
2021/05/12 05:00:13;;;;;;;2.58;2.08;;;20.30;54.90;;;;;;5056369;28;20021;-55
2021/05/12 05:02:40;;;;;;;4.00;2.28;;;20.20;54.80;;;;;;5056249;28;20067;-55
2021/05/12 05:05:08;;;;;;;4.07;2.60;;;20.20;54.80;;;;;;5055916;28;20060;-57
2021/05/12 05:07:33;;;;;;;3.38;2.42;;;20.30;54.80;;;;;;5056276;28;20462;-56
2021/05/12 05:10:02;;;;;;;4.30;2.78;;;20.20;54.80;;;;;;5055853;28;20124;-59
2021/05/12 05:12:28;;;;;;;6.30;3.08;;;20.30;55.00;;;;;;5056360;28;20021;-55
2021/05/12 05:14:53;;;;;;;9.57;2.65;;;20.20;55.10;;;;;;5056115;28;20040;-60
2021/05/12 05:17:19;;;;;;;3.55;2.10;;;20.30;55.10;;;;;;5056052;28;20025;-59
2021/05/12 05:19:44;;;;;;;3.17;2.50;;;20.30;55.10;;;;;;5056142;28;20033;-56
2021/05/12 05:22:11;;;;;;;6.43;2.65;;;20.30;55.10;;;;;;5055903;28;20115;-58
2021/05/12 05:24:38;;;;;;;4.72;2.05;;;20.20;55.10;;;;;;5055988;28;20025;-60
2021/05/12 05:27:04;;;;;;;3.78;2.30;;;20.20;55.10;;;;;;5037969;28;20021;-60
2021/05/12 05:29:30;;;;;;;2.72;2.17;;;20.30;55.10;;;;;;5055343;28;20083;-60
2021/05/12 05:31:55;;;;;;;4.65;2.67;;;20.30;55.10;;;;;;5055647;28;20029;-58
2021/05/12 05:34:21;;;;;;;6.32;2.22;;;20.20;55.10;;;;;;5055273;28;20021;-55
2021/05/12 05:36:46;;;;;;;4.93;3.10;;;20.20;55.10;;;;;;5038384;28;20386;-55
2021/05/12 05:39:12;;;;;;;6.82;3.92;;;20.20;55.10;;;;;;5055409;28;20017;-55
2021/05/12 05:41:37;;;;;;;10.15;3.83;;;20.20;55.00;;;;;;5054877;28;20059;-54
2021/05/12 05:44:03;;;;;;;7.10;3.22;;;20.30;55.10;;;;;;5055485;28;20075;-52
2021/05/12 05:46:29;;;;;;;7.10;2.70;;;20.30;55.20;;;;;;5055359;28;20021;-55
2021/05/12 05:48:54;;;;;;;6.18;2.50;;;20.20;55.20;;;;;;5055587;28;20059;-58
2021/05/12 05:51:21;;;;;;;10.75;3.03;;;20.20;55.30;;;;;;5055276;28;20048;-57
2021/05/12 05:53:47;;;;;;;14.52;3.20;;;20.20;55.30;;;;;;5055448;28;20032;-55
2021/05/12 05:56:12;;;;;;;8.90;2.97;;;20.20;55.40;;;;;;5054548;28;20022;-54
2021/05/12 05:58:38;;;;;;;3.65;2.38;;;20.20;55.40;;;;;;5055074;28;20029;-55
2021/05/12 06:01:03;;;;;;;7.40;3.00;;;20.30;55.50;;;;;;5055109;28;20033;-57
2021/05/12 06:03:29;;;;;;;6.25;2.75;;;20.30;55.60;;;;;;5039757;28;20059;-54
2021/05/12 06:05:54;;;;;;;6.60;2.78;;;20.30;55.60;;;;;;5035474;28;20025;-55
2021/05/12 06:08:20;;;;;;;4.20;2.67;;;20.30;55.70;;;;;;5035184;28;20029;-56
2021/05/12 06:10:45;;;;;;;9.13;3.10;;;20.30;55.70;;;;;;5035095;28;20037;-55
2021/05/12 06:13:11;;;;;;;7.93;2.85;;;20.40;55.80;;;;;;5035137;28;20038;-58
2021/05/12 06:15:39;;;;;;;8.40;2.92;;;20.30;55.80;;;;;;5034695;28;20509;-55
2021/05/12 06:18:06;;;;;;;5.15;2.13;;;20.30;55.80;;;;;;5035132;28;20029;-53
2021/05/12 06:20:32;;;;;;;9.88;2.85;;;20.40;55.90;;;;;;5034505;28;20414;-52
2021/05/12 06:23:04;;;;;;;7.25;3.13;;;20.40;56.00;;;;;;5034692;28;20060;-57
2021/05/12 06:25:30;;;;;;;10.60;2.87;;;20.40;56.00;;;;;;5035284;28;20029;-51
2021/05/12 06:27:56;;;;;;;7.25;3.50;;;20.40;55.70;;;;;;5034714;28;20026;-53
2021/05/12 06:30:22;;;;;;;5.18;3.05;;;20.40;55.60;;;;;;5034253;28;20034;-51
2021/05/12 06:32:50;;;;;;;9.40;3.55;;;20.50;55.50;;;;;;5034968;28;20034;-48
2021/05/12 06:35:16;;;;;;;5.68;3.33;;;20.40;55.40;;;;;;5034405;28;20018;-53
2021/05/12 06:37:42;;;;;;;4.60;2.75;;;20.50;55.40;;;;;;5035151;28;20040;-48
2021/05/12 06:40:08;;;;;;;4.47;2.83;;;20.50;55.30;;;;;;5034541;28;20541;-56
2021/05/12 06:42:33;;;;;;;6.10;2.50;;;20.50;55.30;;;;;;5034922;28;20081;-55
2021/05/12 06:44:59;;;;;;;6.00;3.10;;;20.50;55.40;;;;;;5034675;28;20033;-55
2021/05/12 06:47:24;;;;;;;4.35;3.47;;;20.50;55.40;;;;;;5035035;28;20344;-56
2021/05/12 06:49:50;;;;;;;4.72;3.70;;;20.50;55.50;;;;;;5034501;28;20057;-60
2021/05/12 06:52:15;;;;;;;5.85;3.22;;;20.50;55.30;;;;;;5034535;28;20096;-60
2021/05/12 06:54:41;;;;;;;6.65;3.20;;;20.60;55.30;;;;;;5034546;28;20025;-62
2021/05/12 06:57:07;;;;;;;7.03;3.42;;;20.60;55.20;;;;;;5034277;28;20033;-61
2021/05/12 06:59:32;;;;;;;6.53;3.17;;;20.60;55.10;;;;;;5034484;28;20047;-53
2021/05/12 07:01:58;;;;;;;7.25;3.53;;;20.60;55.00;;;;;;5034242;28;20032;-50
2021/05/12 07:04:23;;;;;;;6.03;3.60;;;20.60;54.20;;;;;;5034494;28;20033;-52
2021/05/12 07:06:49;;;;;;;7.22;3.58;;;20.70;53.70;;;;;;5034409;28;20084;-57
2021/05/12 07:09:14;;;;;;;3.97;3.40;;;20.70;53.50;;;;;;5034280;28;20036;-57
2021/05/12 07:11:40;;;;;;;5.93;3.05;;;20.60;53.60;;;;;;5033903;28;20364;-58
2021/05/12 07:14:07;;;;;;;6.60;2.63;;;20.60;53.60;;;;;;5034409;28;20022;-57
2021/05/12 07:16:33;;;;;;;6.15;2.97;;;20.60;53.60;;;;;;5034003;28;20433;-57
2021/05/12 07:18:59;;;;;;;5.13;3.10;;;20.60;53.50;;;;;;5033969;28;20028;-58
2021/05/12 07:21:24;;;;;;;7.63;2.90;;;20.50;53.40;;;;;;5034506;28;20034;-47
2021/05/12 07:23:50;;;;;;;5.78;2.95;;;20.60;53.30;;;;;;5034274;28;20091;-49
2021/05/12 07:26:16;;;;;;;4.10;2.83;;;20.50;53.20;;;;;;5034162;28;20399;-48
2021/05/12 07:28:42;;;;;;;7.00;2.85;;;20.60;53.30;;;;;;5034529;28;20025;-55
2021/05/12 07:31:08;;;;;;;8.32;2.67;;;20.60;53.20;;;;;;5035123;28;20063;-55
2021/05/12 07:33:34;;;;;;;8.35;2.92;;;20.60;53.20;;;;;;5036614;28;20096;-56
2021/05/12 07:36:00;;;;;;;7.60;2.75;;;20.60;53.30;;;;;;5037961;28;20059;-53
2021/05/12 07:38:25;;;;;;;5.95;2.45;;;20.60;53.30;;;;;;5037873;28;20128;-55
2021/05/12 07:40:51;;;;;;;6.50;2.42;;;20.70;53.40;;;;;;5036656;28;20025;-57
2021/05/12 07:43:16;;;;;;;6.30;2.38;;;20.70;54.20;;;;;;5038079;28;20049;-58
2021/05/12 07:45:43;;;;;;;5.57;2.22;;;20.70;53.60;;;;;;5037633;28;20036;-57
2021/05/12 07:48:11;;;;;;;5.43;2.22;;;20.80;53.70;;;;;;5037785;28;20159;-52
2021/05/12 07:50:38;;;;;;;5.53;2.33;;;20.70;53.80;;;;;;5037598;28;20033;-54
2021/05/12 07:53:06;;;;;;;7.80;2.38;;;20.80;53.90;;;;;;5037446;28;20432;-51
2021/05/12 07:55:31;;;;;;;6.13;1.73;;;20.80;54.00;;;;;;5037347;28;20424;-52
2021/05/12 07:57:57;;;;;;;4.05;1.90;;;20.80;54.10;;;;;;5037537;28;20028;-54
2021/05/12 08:00:23;;;;;;;4.55;1.80;;;20.80;54.10;;;;;;5037501;28;20017;-53
2021/05/12 08:02:49;;;;;;;5.22;2.05;;;20.90;54.30;;;;;;5037689;28;20043;-55
2021/05/12 08:05:15;;;;;;;8.05;2.13;;;20.90;54.30;;;;;;5037073;28;20522;-59
2021/05/12 08:07:41;;;;;;;6.57;1.90;;;20.90;54.10;;;;;;5037057;28;20029;-59
2021/05/12 08:10:08;;;;;;;6.68;1.77;;;20.90;54.00;;;;;;5036600;28;20029;-55
2021/05/12 08:12:34;;;;;;;8.48;1.90;;;20.90;53.90;;;;;;5037206;28;20025;-52
2021/05/12 08:14:59;;;;;;;10.30;2.45;;;20.90;54.00;;;;;;5036998;28;20037;-56
2021/05/12 08:17:25;;;;;;;8.10;2.00;;;20.90;54.00;;;;;;5036887;28;20030;-57
2021/05/12 08:19:51;;;;;;;10.45;1.90;;;20.90;54.10;;;;;;5037939;28;20029;-58
2021/05/12 08:22:16;;;;;;;2.58;1.30;;;21.00;54.20;;;;;;5036984;28;20026;-57
2021/05/12 08:24:42;;;;;;;7.72;1.55;;;21.00;54.20;;;;;;5037008;28;20060;-55
2021/05/12 08:27:08;;;;;;;4.75;1.45;;;21.00;54.20;;;;;;5037069;28;20105;-56
2021/05/12 08:29:36;;;;;;;4.60;1.60;;;21.00;54.10;;;;;;5037236;28;20038;-57
2021/05/12 08:32:04;;;;;;;3.95;1.30;;;21.00;54.00;;;;;;5036787;28;20483;-55
2021/05/12 08:34:31;;;;;;;2.90;1.10;;;21.10;53.90;;;;;;5036729;28;20036;-56
2021/05/12 08:36:56;;;;;;;4.93;1.55;;;21.10;53.80;;;;;;5036478;28;20456;-58
2021/05/12 08:39:22;;;;;;;3.28;1.52;;;21.10;53.70;;;;;;5036793;28;20049;-58
2021/05/12 08:41:50;;;;;;;2.78;1.27;;;21.10;53.60;;;;;;5036454;28;20135;-57
2021/05/12 08:44:16;;;;;;;7.75;1.15;;;21.10;53.50;;;;;;5035952;28;20032;-56
2021/05/12 08:46:44;;;;;;;3.70;1.10;;;21.20;53.50;;;;;;5036629;28;20026;-55
2021/05/12 08:49:10;;;;;;;4.63;1.00;;;21.10;53.40;;;;;;5036832;28;20017;-56
2021/05/12 08:51:37;;;;;;;4.40;1.42;;;21.20;53.40;;;;;;5036258;28;20065;-57
2021/05/12 08:54:03;;;;;;;4.00;1.23;;;21.20;53.40;;;;;;5036131;28;20467;-54
2021/05/12 08:56:29;;;;;;;4.53;1.42;;;21.20;53.30;;;;;;5036015;28;20104;-57
2021/05/12 08:58:56;;;;;;;3.78;1.23;;;21.20;53.30;;;;;;5036748;28;20428;-58
2021/05/12 09:01:21;;;;;;;3.55;0.95;;;21.30;53.30;;;;;;5036529;28;20022;-56
2021/05/12 09:03:47;;;;;;;4.88;1.48;;;21.20;53.20;;;;;;5036460;28;20052;-55
2021/05/12 09:06:13;;;;;;;5.40;1.38;;;21.30;53.10;;;;;;5036102;28;20021;-58
2021/05/12 09:08:40;;;;;;;3.08;1.40;;;21.30;53.00;;;;;;5035898;28;20824;-63
2021/05/12 09:11:06;;;;;;;6.78;1.63;;;21.30;49.80;;;;;;5036366;28;20041;-62
2021/05/12 09:13:43;;;;;;;8.43;2.00;;;21.20;47.30;;;;;;5036136;28;20344;-61
2021/05/12 09:16:26;;;;;;;8.93;3.30;;;21.10;46.30;;;;;;5035757;28;20021;-61
2021/05/12 09:19:05;;;;;;;5.15;1.88;;;20.90;46.70;;;;;;5036101;28;20021;-56
2021/05/12 09:21:53;;;;;;;4.75;1.55;;;20.80;48.40;;;;;;5035803;28;20100;-53
2021/05/12 09:24:24;;;;;;;5.88;1.17;;;20.80;49.90;;;;;;5035962;28;20132;-50
2021/05/12 09:26:53;;;;;;;1.27;0.68;;;20.90;50.30;;;;;;5036062;28;20045;-58
2021/05/12 09:29:27;;;;;;;4.15;1.33;;;20.90;50.70;;;;;;5035071;28;20104;-58
2021/05/12 09:32:05;;;;;;;3.17;1.27;;;21.00;50.90;;;;;;5035002;28;20083;-55
2021/05/12 09:35:03;;;;;;;5.07;1.02;;;21.10;51.00;;;;;;5035414;28;20440;-55
2021/05/12 09:37:33;;;;;;;2.75;1.05;;;21.10;51.00;;;;;;5023755;28;20068;-54
2021/05/12 09:40:29;;;;;;;3.25;0.93;;;21.20;51.00;;;;;;5035432;28;20101;-56
2021/05/12 09:43:00;;;;;;;2.40;0.80;;;21.20;51.00;;;;;;5022631;28;20132;-54
2021/05/12 09:45:29;;;;;;;1.50;0.75;;;21.30;51.00;;;;;;5034537;28;20340;-57
2021/05/12 09:47:57;;;;;;;3.08;0.90;;;21.30;51.00;;;;;;5035452;28;20021;-56
2021/05/12 09:50:36;;;;;;;8.20;1.40;;;21.40;51.10;;;;;;5035184;28;20036;-55
2021/05/12 09:53:14;;;;;;;2.03;0.68;;;21.40;51.10;;;;;;5035406;28;20064;-56
2021/05/12 09:55:45;;;;;;;3.85;1.00;;;21.40;51.10;;;;;;5035157;28;20029;-55
2021/05/12 09:58:12;;;;;;;4.20;0.70;;;21.50;51.20;;;;;;5035369;28;20030;-57
2021/05/12 10:00:40;;;;;;;2.05;0.52;;;21.50;51.20;;;;;;5034930;28;20437;-59
2021/05/12 10:03:09;;;;;;;1.92;0.80;;;21.60;51.20;;;;;;5035378;28;20025;-57
2021/05/12 10:06:01;;;;;;;3.28;0.90;;;21.60;51.20;;;;;;5035531;28;20017;-58
2021/05/12 10:08:35;;;;;;;3.97;1.25;;;21.60;51.20;;;;;;5035340;28;20121;-57
2021/05/12 10:11:03;;;;;;;3.13;1.20;;;21.60;51.20;;;;;;5034552;28;20453;-55
2021/05/12 10:13:30;;;;;;;5.22;1.05;;;21.70;51.30;;;;;;5034864;28;20033;-54
2021/05/12 10:15:56;;;;;;;1.38;0.75;;;21.70;51.40;;;;;;5034999;28;20033;-54
2021/05/12 10:18:21;;;;;;;5.55;0.82;;;21.70;51.40;;;;;;5035027;28;20026;-53
2021/05/12 10:20:47;;;;;;;5.78;0.98;;;21.70;51.50;;;;;;5035114;28;20083;-56
2021/05/12 10:23:12;;;;;;;3.38;0.80;;;21.80;51.60;;;;;;5034759;28;20348;-53
2021/05/12 10:25:39;;;;;;;3.92;1.00;;;21.80;51.50;;;;;;5035083;28;20036;-48
2021/05/12 10:28:06;;;;;;;3.42;1.10;;;21.80;51.30;;;;;;5034862;28;20080;-50
2021/05/12 10:30:32;;;;;;;3.72;0.80;;;21.80;51.20;;;;;;5035230;28;20037;-54
2021/05/12 10:32:59;;;;;;;4.03;1.33;;;21.80;51.20;;;;;;5034864;28;20026;-51
2021/05/12 10:35:31;;;;;;;3.53;1.02;;;21.80;51.20;;;;;;5034912;28;20080;-53
2021/05/12 10:37:57;;;;;;;4.57;1.08;;;21.80;51.20;;;;;;5035099;28;20037;-53
2021/05/12 10:40:25;;;;;;;3.58;0.88;;;21.90;51.20;;;;;;5034489;28;20441;-53
2021/05/12 10:42:56;;;;;;;5.15;1.17;;;21.90;51.10;;;;;;5034363;28;20128;-55
2021/05/12 10:48:34;;;;;;;6.50;1.30;;;21.90;51.00;;;;;;5020796;28;20038;-54
2021/05/12 10:51:02;;;;;;;4.03;0.98;;;21.90;50.90;;;;;;5034320;28;20456;-50
2021/05/12 10:53:30;;;;;;;3.10;0.82;;;21.90;51.00;;;;;;5034766;28;20052;-58
2021/05/12 10:55:55;;;;;;;3.97;1.25;;;21.90;51.00;;;;;;5034717;28;20038;-58
2021/05/12 10:58:21;;;;;;;2.85;0.93;;;21.90;51.10;;;;;;5034180;28;20040;-59
2021/05/12 11:01:01;;;;;;;3.42;1.00;;;21.90;51.20;;;;;;5160533;22;20123;-56
2021/05/12 11:03:55;;;;;;;6.95;1.17;;;21.90;51.20;;;;;;5015140;28;20030;-58
2021/05/12 11:06:44;;;;;;;6.63;1.02;;;22.00;51.50;;;;;;5014748;28;20034;-59
2021/05/12 11:09:34;;;;;;;5.05;0.90;;;21.90;51.50;;;;;;5018734;28;20107;-59
2021/05/12 11:12:13;;;;;;;2.47;0.77;;;22.00;51.60;;;;;;5018689;28;20478;-56
2021/05/12 11:14:39;;;;;;;5.05;1.10;;;22.00;51.80;;;;;;5018695;28;20014;-59
2021/05/12 11:17:19;;;;;;;2.83;0.68;;;22.00;51.80;;;;;;5018443;28;20045;-55
2021/05/12 11:22:35;;;;;;;1.75;0.70;;;22.00;51.80;;;;;;5018521;28;20029;-55
2021/05/12 11:25:19;;;;;;;3.78;1.05;;;22.00;51.60;;;;;;5018061;28;20325;-58
2021/05/12 11:33:27;;;;;;;5.25;0.80;;;22.00;51.50;;;;;;5018296;28;20368;-58
2021/05/12 11:36:02;;;;;;;4.38;0.80;;;22.10;51.50;;;;;;5018486;28;20033;-56
2021/05/12 11:38:28;;;;;;;2.50;0.82;;;22.10;51.50;;;;;;5017905;28;20352;-57
2021/05/12 11:41:04;;;;;;;2.42;0.63;;;22.10;51.50;;;;;;5018285;28;20025;-58
2021/05/12 11:43:56;;;;;;;1.63;0.60;;;22.10;51.50;;;;;;5018167;28;20022;-53
2021/05/12 11:46:34;;;;;;;1.70;0.73;;;22.10;51.50;;;;;;5017824;28;20046;-59
2021/05/12 11:49:05;;;;;;;2.00;0.63;;;22.10;51.40;;;;;;5017496;28;20053;-58
2021/05/12 11:51:36;;;;;;;3.97;0.80;;;22.10;51.30;;;;;;5018178;28;20064;-56
2021/05/12 11:54:12;;;;;;;2.92;1.10;;;22.10;51.30;;;;;;5017804;28;20069;-55
2021/05/12 11:56:44;;;;;;;2.38;0.88;;;22.10;51.30;;;;;;5018101;28;20026;-56
2021/05/12 11:59:14;;;;;;;2.78;0.80;;;22.20;51.40;;;;;;5018214;28;20097;-56
2021/05/12 12:01:44;;;;;;;4.90;0.77;;;22.20;51.40;;;;;;5017580;28;20061;-57
2021/05/12 12:06:45;;;;;;;3.28;0.80;;;22.20;51.40;;;;;;5017894;28;20030;-57
2021/05/12 12:09:13;;;;;;;1.98;0.65;;;22.20;51.30;;;;;;5018085;28;20018;-53
2021/05/12 12:11:40;;;;;;;1.42;0.60;;;22.30;51.30;;;;;;5018013;28;20040;-53
2021/05/12 12:14:07;;;;;;;3.08;0.70;;;22.30;51.30;;;;;;5017002;28;20172;-58
2021/05/12 12:16:37;;;;;;;4.10;1.17;;;22.30;51.20;;;;;;5016156;28;20065;-55
2021/05/12 12:19:10;;;;;;;7.18;1.10;;;22.30;51.20;;;;;;5016509;28;20333;-55
2021/05/12 12:21:35;;;;;;;2.00;0.50;;;22.30;51.10;;;;;;5017526;28;20033;-57
2021/05/12 12:24:08;;;;;;;3.22;0.68;;;22.30;51.00;;;;;;5017203;28;20340;-55
2021/05/12 12:26:36;;;;;;;3.45;0.60;;;22.30;50.70;;;;;;5016922;28;20033;-56
2021/05/12 12:29:06;;;;;;;5.68;0.82;;;22.30;50.60;;;;;;5017129;28;20460;-57
2021/05/12 12:31:45;;;;;;;1.73;0.75;;;22.30;50.50;;;;;;5017217;28;20104;-56
2021/05/12 12:34:22;;;;;;;3.40;0.70;;;22.30;50.30;;;;;;5017029;28;20490;-53
2021/05/12 12:37:11;;;;;;;5.22;0.88;;;22.30;50.20;;;;;;5017315;28;20030;-56
2021/05/12 12:39:36;;;;;;;5.20;0.90;;;22.30;50.10;;;;;;5017178;28;20026;-56
2021/05/12 12:42:03;;;;;;;1.77;0.75;;;22.30;50.10;;;;;;5017143;28;20032;-57
2021/05/12 12:44:37;;;;;;;1.77;0.70;;;22.30;49.90;;;;;;5016906;28;20025;-58
2021/05/12 12:47:04;;;;;;;2.72;0.80;;;22.30;49.80;;;;;;5017544;28;20026;-58
2021/05/12 12:49:46;;;;;;;2.20;0.95;;;22.30;49.70;;;;;;5016599;28;20200;-58
2021/05/12 12:52:35;;;;;;;3.50;0.68;;;22.30;49.70;;;;;;5017509;28;20037;-58
2021/05/12 12:55:07;;;;;;;2.33;0.50;;;22.30;49.70;;;;;;5017158;28;20030;-55
2021/05/12 12:57:42;;;;;;;2.33;0.52;;;22.30;49.60;;;;;;5017125;28;20040;-53
2021/05/12 13:00:23;;;;;;;3.58;1.02;;;22.30;49.60;;;;;;5016317;28;20053;-55
2021/05/12 13:03:05;;;;;;;1.50;0.60;;;22.30;49.50;;;;;;5016632;28;20440;-55
2021/05/12 13:05:35;;;;;;;2.92;0.60;;;22.30;49.50;;;;;;5016928;28;20044;-58
2021/05/12 13:08:18;;;;;;;4.47;0.57;;;22.30;49.40;;;;;;5016633;28;20081;-56